Wellington, FL

8:26 PM EDT on March 26, 2015 (GMT -0400)
Indigo Weather | | Change Station
CLOSE
Current Station
Personal Weather Station
Location: Wellington, FL
Elevation: 23 ft
Nearby Weather Stations

Elev 23 ft 26.67 °N, 80.26 °W | Updated 7 minutes ago

Thunderstorm
Thunderstorm
80.2 °F
Feels Like 84 °F
N
1.0
Wind Variable Wind from West
Gusts 4.0 mph

Today
High -- | Low -- °F
--% Chance of Precip.
Yesterday
High -- | Low -- °F
Precip. -- in
7:18 AM 7:35 PM
Waxing Crescent, 47% visible
Pressure 29.91 in
Visibility 10.0 miles
Clouds Scattered Clouds 4000 ft
Mostly Cloudy 15000 ft
Mostly Cloudy 25000 ft
Heat Index 84 °F
Dew Point 72 °F
Humidity 75%
Rainfall 0.00 in
Snow Depth Not available.
UV 0 out of 12
Pollen 7.50 out of 12
Air Quality Not available.
Flu Activity Not available.
METAR KPBI 262353Z 17011KT 10SM SCT040 BKN150 BKN250 27/22 A2991 RMK AO2 SLP126 CB DSNT N-NE W NW 60005 T02670222 10294 20261 53005

More Conditions Fewer Conditions

Pressure 29.91 in
Visibility 10.0 miles
Clouds Scattered Clouds 4000 ft
Mostly Cloudy 15000 ft
Mostly Cloudy 25000 ft
Heat Index 84 °F
Dew Point 72 °F
Humidity 75%
Rainfall 0.00 in
Snow Depth Not available.
UV 0 out of 12
Pollen 7.50 out of 12
Air Quality Not available.
Flu Activity Not available.
METAR KPBI 262353Z 17011KT 10SM SCT040 BKN150 BKN250 27/22 A2991 RMK AO2 SLP126 CB DSNT N-NE W NW 60005 T02670222 10294 20261 53005

More Conditions Fewer Conditions

10-Day Weather Forecast

Almanac

Astronomy

Mar. 26, 2015 Rise Set
Actual Time
Civil Twilight
Nautical Twilight
Astronomical Twilight
Moon
Length of Visible Light
Length of Day
Tomorrow will be .
, % of the Moon is Illuminated

Today's Extremes

State Highs State Lows

Community

WunderPhotos

Upload Photos

1,808,651 photos uploaded!

WunderBlogs® & News

Nearby

Air Quality

  Air Quality AQ Index Pollutant
Not available.

Snow Depth

Station Depth Elevation

Earthquake Activity

City Distance Mag. Time & Date
Minimum magnitude displayed is 2.5.

Coastal Water Temperatures

Place Temperature

Stations

Nearby Weather Stations

Station Location Temp. Windchill Dew Point Humidity Wind Precip. Elev Updated Type